createdAt,value
2017-05-02T00:01:47.461Z,9.48
2017-05-02T00:04:16.540Z,9.42
2017-05-02T00:06:44.917Z,10.26
2017-05-02T00:09:13.286Z,9.44
2017-05-02T00:11:41.623Z,8.76
2017-05-02T00:14:09.973Z,8.78
2017-05-02T00:16:39.069Z,8.90
2017-05-02T00:19:07.450Z,8.86
2017-05-02T00:21:35.827Z,8.10
2017-05-02T00:24:04.926Z,8.68
2017-05-02T00:26:33.295Z,8.64
2017-05-02T00:29:02.371Z,8.54
2017-05-02T00:31:31.473Z,7.42
2017-05-02T00:34:00.579Z,8.14
2017-05-02T00:36:29.685Z,7.76
2017-05-02T00:38:58.050Z,8.50
2017-05-02T00:41:27.135Z,7.96
2017-05-02T00:43:56.249Z,8.70
2017-05-02T00:46:24.582Z,8.20
2017-05-02T00:48:52.950Z,7.64
2017-05-02T00:51:21.286Z,8.52
2017-05-02T00:53:49.653Z,7.72
2017-05-02T00:56:18.016Z,7.18
2017-05-02T00:58:47.146Z,7.60
2017-05-02T01:01:15.525Z,7.60
2017-05-02T01:03:43.875Z,8.30
2017-05-02T01:06:12.946Z,10.48
2017-05-02T01:08:41.330Z,8.26
2017-05-02T01:11:09.661Z,7.30
2017-05-02T01:13:38.413Z,8.00
2017-05-02T01:16:06.765Z,7.06
2017-05-02T01:18:35.097Z,7.38
2017-05-02T01:21:03.609Z,7.04
2017-05-02T01:23:32.821Z,7.28
2017-05-02T01:26:01.897Z,6.86
2017-05-02T01:28:30.249Z,8.10
2017-05-02T01:30:58.590Z,7.80
2017-05-02T01:33:26.974Z,10.20
2017-05-02T01:35:55.322Z,6.62
2017-05-02T01:38:23.678Z,8.52
2017-05-02T01:40:52.068Z,7.36
2017-05-02T01:43:20.427Z,6.66
2017-05-02T01:45:48.821Z,7.22
2017-05-02T01:48:17.246Z,6.92
2017-05-02T01:50:45.601Z,6.66
2017-05-02T01:53:14.706Z,7.50
2017-05-02T01:55:43.055Z,7.06
2017-05-02T01:58:11.406Z,8.36
2017-05-02T02:00:39.780Z,9.44
2017-05-02T02:03:08.128Z,6.82
2017-05-02T02:05:36.489Z,8.12
2017-05-02T02:08:05.561Z,8.70
2017-05-02T02:10:33.928Z,6.60
2017-05-02T02:13:02.289Z,6.68
2017-05-02T02:15:30.618Z,7.76
2017-05-02T02:17:59.004Z,6.52
2017-05-02T02:20:27.392Z,7.36
2017-05-02T02:22:55.738Z,6.96
2017-05-02T02:25:24.834Z,7.30
2017-05-02T02:27:53.202Z,6.86
2017-05-02T02:30:22.264Z,6.68
2017-05-02T02:32:50.626Z,7.32
2017-05-02T02:35:18.952Z,7.48
2017-05-02T02:37:48.054Z,6.68
2017-05-02T02:40:16.421Z,6.38
2017-05-02T02:42:44.771Z,11.38
2017-05-02T02:45:13.145Z,7.48
2017-05-02T02:47:41.496Z,7.64
2017-05-02T02:50:09.957Z,7.94
2017-05-02T02:52:38.284Z,9.32
2017-05-02T02:55:06.639Z,6.82
2017-05-02T02:57:35.004Z,7.00
2017-05-02T03:00:03.330Z,8.36
2017-05-02T03:02:31.673Z,7.30
2017-05-02T03:05:00.041Z,11.66
2017-05-02T03:07:28.409Z,6.70
2017-05-02T03:09:56.748Z,7.34
2017-05-02T03:12:25.862Z,7.04
2017-05-02T03:14:54.325Z,7.32
2017-05-02T03:17:23.444Z,7.96
2017-05-02T03:19:51.806Z,7.34
2017-05-02T03:22:20.951Z,7.44
2017-05-02T03:24:49.305Z,9.88
2017-05-02T03:27:17.662Z,7.28
2017-05-02T03:29:46.005Z,7.94
2017-05-02T03:32:14.373Z,6.84
2017-05-02T03:34:42.698Z,8.08
2017-05-02T03:37:11.122Z,7.12
2017-05-02T03:39:39.453Z,7.58
2017-05-02T03:42:07.821Z,6.60
2017-05-02T03:44:36.220Z,6.94
2017-05-02T03:47:04.589Z,6.66
2017-05-02T03:49:32.953Z,10.34
2017-05-02T03:52:02.103Z,7.30
2017-05-02T03:54:30.885Z,8.16
2017-05-02T03:56:59.250Z,7.26
2017-05-02T03:59:27.588Z,7.86
2017-05-02T04:01:56.694Z,7.30
2017-05-02T04:04:25.037Z,7.80
2017-05-02T04:06:53.496Z,7.84
2017-05-02T04:09:21.821Z,7.48
2017-05-02T04:11:50.177Z,7.58
2017-05-02T04:14:19.318Z,10.02
2017-05-02T04:16:47.648Z,11.74
2017-05-02T04:19:15.996Z,6.78
2017-05-02T04:21:44.356Z,7.88
2017-05-02T04:24:12.710Z,8.22
2017-05-02T04:26:41.061Z,8.96
2017-05-02T04:29:09.433Z,7.60
2017-05-02T04:31:37.805Z,7.38
2017-05-02T04:34:06.143Z,8.24
2017-05-02T04:36:34.618Z,7.32
2017-05-02T04:39:02.942Z,8.38
2017-05-02T04:41:32.110Z,8.28
2017-05-02T04:44:00.836Z,8.02
2017-05-02T04:46:29.161Z,9.10
2017-05-02T04:48:57.522Z,8.28
2017-05-02T04:51:25.875Z,9.26
2017-05-02T04:53:54.267Z,8.30
2017-05-02T04:56:22.622Z,7.28
2017-05-02T04:58:50.241Z,8.14
2017-05-02T05:01:18.601Z,7.52
2017-05-02T05:03:46.950Z,8.54
2017-05-02T05:06:15.393Z,6.98
2017-05-02T05:08:43.762Z,7.54
2017-05-02T05:11:12.130Z,9.14
2017-05-02T05:13:40.456Z,8.50
2017-05-02T05:16:08.834Z,8.90
2017-05-02T05:18:37.224Z,7.70
2017-05-02T05:21:05.576Z,7.62
2017-05-02T05:23:33.927Z,7.68
2017-05-02T05:26:02.301Z,8.46
2017-05-02T05:28:30.677Z,8.22
2017-05-02T05:30:59.014Z,8.40
2017-05-02T05:33:27.367Z,8.06
2017-05-02T05:35:55.722Z,6.60
2017-05-02T05:38:24.057Z,7.48
2017-05-02T05:40:52.426Z,8.66
2017-05-02T05:43:21.081Z,8.26
2017-05-02T05:45:50.148Z,7.44
2017-05-02T05:48:18.585Z,9.14
2017-05-02T05:50:46.966Z,8.92
2017-05-02T05:53:15.308Z,7.80
2017-05-02T05:55:44.417Z,8.02
2017-05-02T05:58:13.190Z,7.48
2017-05-02T06:00:42.264Z,10.30
2017-05-02T06:03:10.620Z,7.50
2017-05-02T06:05:38.973Z,7.16
2017-05-02T06:08:07.346Z,7.18
2017-05-02T06:10:35.805Z,6.96
2017-05-02T06:13:04.145Z,8.14
2017-05-02T06:15:32.814Z,8.42
2017-05-02T06:18:01.206Z,8.00
2017-05-02T06:20:29.565Z,10.66
2017-05-02T06:22:57.983Z,7.34
2017-05-02T06:25:27.515Z,7.64
2017-05-02T06:27:56.211Z,6.70
2017-05-02T06:30:25.304Z,7.82
2017-05-02T06:32:53.657Z,7.28
2017-05-02T06:35:22.786Z,7.37
2017-05-02T06:37:51.158Z,11.66
2017-05-02T06:40:20.391Z,11.38
2017-05-02T06:42:48.816Z,7.12
2017-05-02T06:45:17.342Z,7.26
2017-05-02T06:47:45.798Z,7.50
2017-05-02T06:50:14.243Z,7.64
2017-05-02T06:52:43.519Z,10.20
2017-05-02T06:55:11.884Z,7.80
2017-05-02T06:57:40.239Z,6.68
2017-05-02T07:00:08.613Z,7.08
2017-05-02T07:02:36.996Z,8.06
2017-05-02T07:05:05.391Z,7.48
2017-05-02T07:07:34.327Z,9.94
2017-05-02T07:10:02.792Z,7.46
2017-05-02T07:12:31.774Z,8.36
2017-05-02T07:15:00.955Z,6.32
2017-05-02T07:17:29.410Z,9.10
2017-05-02T07:19:57.876Z,7.38
2017-05-02T07:22:26.428Z,6.68
2017-05-02T07:24:54.985Z,8.02
2017-05-02T07:27:23.449Z,7.68
2017-05-02T07:29:52.405Z,5.44
2017-05-02T07:32:20.785Z,12.16
2017-05-02T07:34:49.115Z,6.68
2017-05-02T07:37:18.292Z,7.90
2017-05-02T07:39:46.717Z,7.78
2017-05-02T07:42:15.080Z,6.78
2017-05-02T07:44:44.303Z,6.10
2017-05-02T07:47:12.738Z,6.30
2017-05-02T07:49:41.858Z,10.54
2017-05-02T07:52:10.349Z,8.50
2017-05-02T07:54:38.783Z,7.38
2017-05-02T07:57:07.933Z,6.84
2017-05-02T07:59:36.784Z,8.02
2017-05-02T08:02:05.645Z,6.02
2017-05-02T08:04:34.753Z,6.52
2017-05-02T08:07:03.149Z,6.86
2017-05-02T08:09:32.294Z,7.28
2017-05-02T08:12:00.681Z,7.30
2017-05-02T08:14:29.036Z,6.54
2017-05-02T08:16:57.413Z,7.60
2017-05-02T08:19:25.820Z,8.16
2017-05-02T08:21:54.150Z,6.20
2017-05-02T08:24:22.490Z,7.60
2017-05-02T08:26:50.860Z,7.16
2017-05-02T08:29:19.188Z,7.64
2017-05-02T08:31:47.558Z,5.88
2017-05-02T08:34:15.918Z,6.68
2017-05-02T08:36:44.816Z,6.44
2017-05-02T08:39:13.909Z,7.78
2017-05-02T08:41:43.010Z,7.86
2017-05-02T08:44:11.363Z,6.66
2017-05-02T08:46:40.492Z,6.80
2017-05-02T08:49:08.874Z,7.48
2017-05-02T08:51:37.213Z,10.24
2017-05-02T08:54:05.554Z,6.14
2017-05-02T08:56:33.917Z,6.42
2017-05-02T08:59:02.311Z,6.10
2017-05-02T09:01:30.677Z,7.70
2017-05-02T09:03:59.056Z,7.38
2017-05-02T09:06:27.420Z,5.90
2017-05-02T09:08:55.755Z,6.32
2017-05-02T09:11:24.122Z,6.22
2017-05-02T09:13:52.485Z,6.76
2017-05-02T09:16:20.876Z,6.34
2017-05-02T09:18:49.258Z,6.92
2017-05-02T09:21:17.599Z,7.04
2017-05-02T09:23:46.224Z,6.68
2017-05-02T09:26:14.667Z,5.56
2017-05-02T09:28:43.093Z,8.28
2017-05-02T09:31:12.219Z,5.96
2017-05-02T09:33:40.987Z,8.44
2017-05-02T09:36:09.434Z,6.14
2017-05-02T09:38:38.226Z,6.12
2017-05-02T09:41:06.618Z,5.76
2017-05-02T09:43:35.735Z,6.44
2017-05-02T09:46:04.157Z,7.66
2017-05-02T09:48:33.458Z,6.66
2017-05-02T09:51:01.822Z,6.68
2017-05-02T09:53:30.210Z,6.40
2017-05-02T09:55:58.634Z,8.90
2017-05-02T09:58:27.823Z,6.58
2017-05-02T10:00:56.233Z,5.72
2017-05-02T10:03:24.566Z,6.88
2017-05-02T10:05:53.401Z,7.74
2017-05-02T10:08:21.756Z,7.76
2017-05-02T10:10:50.888Z,6.78
2017-05-02T10:13:19.703Z,6.08
2017-05-02T10:15:48.242Z,7.60
2017-05-02T10:18:16.610Z,7.12
2017-05-02T10:20:45.416Z,7.86
2017-05-02T10:23:13.860Z,6.92
2017-05-02T10:25:42.235Z,8.46
2017-05-02T10:28:10.625Z,7.90
2017-05-02T10:30:39.122Z,7.60
2017-05-02T10:33:07.697Z,8.68
2017-05-02T10:35:36.161Z,7.84
2017-05-02T10:38:04.515Z,8.04
2017-05-02T10:40:32.969Z,7.94
2017-05-02T10:43:01.349Z,7.12
2017-05-02T10:45:30.725Z,7.38
2017-05-02T10:47:59.149Z,7.30
2017-05-02T10:50:28.302Z,7.02
2017-05-02T10:52:57.375Z,8.42
2017-05-02T10:55:25.811Z,6.86
2017-05-02T10:57:54.293Z,7.92
2017-05-02T11:00:23.225Z,7.50
2017-05-02T11:02:51.674Z,7.10
2017-05-02T11:05:21.057Z,7.18
2017-05-02T11:07:49.443Z,7.28
2017-05-02T11:10:17.809Z,7.40
2017-05-02T11:12:46.273Z,7.58
2017-05-02T11:15:14.654Z,7.78
2017-05-02T11:17:43.074Z,7.86
2017-05-02T11:20:11.482Z,7.82
2017-05-02T11:22:39.890Z,7.56
2017-05-02T11:25:08.269Z,8.14
2017-05-02T11:27:36.676Z,7.50
2017-05-02T11:30:05.024Z,7.52
2017-05-02T11:32:33.374Z,7.72
2017-05-02T11:35:01.750Z,8.90
2017-05-02T11:37:30.441Z,6.82
2017-05-02T11:39:58.908Z,7.72
2017-05-02T11:42:27.577Z,7.42
2017-05-02T11:44:55.921Z,6.92
2017-05-02T11:47:25.052Z,7.06
2017-05-02T11:49:54.301Z,6.56
2017-05-02T11:52:22.792Z,6.06
2017-05-02T11:54:51.152Z,6.98
2017-05-02T11:57:19.558Z,5.92
2017-05-02T11:59:47.925Z,6.54
2017-05-02T12:02:16.292Z,6.90
2017-05-02T12:04:45.469Z,7.56
2017-05-02T12:07:13.836Z,6.58
2017-05-02T12:09:42.216Z,7.00
2017-05-02T12:12:11.378Z,6.70
2017-05-02T12:14:39.747Z,8.80
2017-05-02T12:17:08.829Z,6.40
2017-05-02T12:19:37.561Z,7.30
2017-05-02T12:22:05.949Z,6.56
2017-05-02T12:24:35.042Z,7.64
2017-05-02T12:27:03.740Z,6.90
2017-05-02T12:29:32.122Z,5.88
2017-05-02T12:32:01.358Z,5.88
2017-05-02T12:34:29.973Z,6.30
2017-05-02T12:36:58.405Z,6.76
2017-05-02T12:39:26.780Z,5.88
2017-05-02T12:41:55.155Z,6.66
2017-05-02T12:44:23.489Z,5.42
2017-05-02T12:46:51.849Z,5.20
2017-05-02T12:49:20.204Z,4.88
2017-05-02T12:51:48.555Z,5.22
2017-05-02T12:54:16.974Z,6.20
2017-05-02T12:56:45.366Z,5.12
2017-05-02T12:59:13.764Z,9.64
2017-05-02T13:01:42.317Z,5.12
2017-05-02T13:04:10.743Z,5.60
2017-05-02T13:06:39.084Z,5.42
2017-05-02T13:09:07.719Z,5.48
2017-05-02T13:11:36.054Z,5.42
2017-05-02T13:14:04.384Z,5.12
2017-05-02T13:16:32.740Z,4.66
2017-05-02T13:19:01.110Z,4.62
2017-05-02T13:21:29.452Z,5.80
2017-05-02T13:23:57.813Z,5.08
2017-05-02T13:26:26.922Z,4.92
2017-05-02T13:28:55.249Z,5.94
2017-05-02T13:31:24.300Z,7.38
2017-05-02T13:33:52.630Z,5.12
2017-05-02T13:36:20.986Z,5.20
2017-05-02T13:38:49.381Z,5.44
2017-05-02T13:41:17.709Z,5.08
2017-05-02T13:43:46.045Z,4.60
2017-05-02T13:46:14.685Z,4.50
2017-05-02T13:48:43.105Z,5.12
2017-05-02T13:51:11.449Z,4.68
2017-05-02T13:53:39.814Z,5.42
2017-05-02T13:56:08.205Z,7.68
2017-05-02T13:58:36.642Z,5.80
2017-05-02T14:01:04.993Z,5.48
2017-05-02T14:03:33.352Z,6.00
2017-05-02T14:06:01.715Z,5.20
2017-05-02T14:08:30.050Z,5.24
2017-05-02T14:10:58.564Z,8.68
2017-05-02T14:13:26.913Z,9.48
2017-05-02T14:15:55.258Z,7.98
2017-05-02T14:18:24.388Z,7.12
2017-05-02T14:20:52.810Z,5.46
2017-05-02T14:23:21.169Z,6.36
2017-05-02T14:25:49.521Z,5.42
2017-05-02T14:28:17.905Z,5.50
2017-05-02T14:30:46.574Z,5.62
2017-05-02T14:33:14.908Z,6.22
2017-05-02T14:35:43.250Z,5.82
2017-05-02T14:38:11.625Z,6.66
2017-05-02T14:40:39.958Z,7.38
2017-05-02T14:43:09.057Z,5.96
2017-05-02T14:45:38.159Z,7.76
2017-05-02T14:48:06.523Z,6.56
2017-05-02T14:50:34.987Z,8.40
2017-05-02T14:53:03.330Z,7.08
2017-05-02T14:55:31.665Z,7.00
2017-05-02T14:58:01.985Z,6.88
2017-05-02T15:00:30.513Z,6.44
2017-05-02T15:02:59.739Z,9.50
2017-05-02T15:05:28.185Z,6.84
2017-05-02T15:07:57.209Z,6.84
2017-05-02T15:10:25.986Z,8.22
2017-05-02T15:12:54.355Z,7.92
2017-05-02T15:15:22.728Z,8.34
2017-05-02T15:17:51.913Z,9.46
2017-05-02T15:20:21.556Z,7.14
2017-05-02T15:22:49.992Z,6.60
2017-05-02T15:25:18.391Z,7.48
2017-05-02T15:27:46.856Z,7.78
2017-05-02T15:30:15.672Z,8.52
2017-05-02T15:32:44.092Z,9.86
2017-05-02T15:35:12.606Z,7.60
2017-05-02T15:37:41.046Z,8.08
2017-05-02T15:40:09.774Z,8.40
2017-05-02T15:42:38.137Z,7.32
2017-05-02T15:45:06.538Z,7.76
2017-05-02T15:47:34.902Z,7.64
2017-05-02T15:50:03.809Z,7.96
2017-05-02T15:52:32.262Z,8.66
2017-05-02T15:55:00.721Z,8.02
2017-05-02T15:57:29.601Z,8.16
2017-05-02T15:59:58.718Z,7.68
2017-05-02T16:02:27.107Z,6.90
2017-05-02T16:04:55.638Z,10.16
2017-05-02T16:07:24.055Z,11.12
2017-05-02T16:09:52.397Z,10.74
2017-05-02T16:12:20.847Z,10.60
2017-05-02T16:14:49.249Z,7.66
2017-05-02T16:17:18.005Z,8.40
2017-05-02T16:19:46.379Z,7.40
2017-05-02T16:22:14.711Z,9.60
2017-05-02T16:24:43.077Z,9.56
2017-05-02T16:27:11.555Z,14.34
2017-05-02T16:29:39.946Z,10.20
2017-05-02T16:32:09.114Z,13.70
2017-05-02T16:34:37.551Z,9.52
2017-05-02T16:37:06.010Z,12.02
2017-05-02T16:39:35.072Z,12.78
2017-05-02T16:42:03.960Z,10.26
2017-05-02T16:44:32.349Z,11.14
2017-05-02T16:47:00.791Z,9.62
2017-05-02T16:49:29.162Z,11.86
2017-05-02T16:51:57.552Z,11.48
2017-05-02T16:54:25.906Z,11.90
2017-05-02T16:56:54.365Z,9.28
2017-05-02T16:59:23.782Z,11.12
2017-05-02T17:01:52.146Z,9.52
2017-05-02T17:04:20.506Z,10.24
2017-05-02T17:06:49.663Z,9.94
2017-05-02T17:09:18.658Z,9.72
2017-05-02T17:11:47.058Z,8.36
2017-05-02T17:14:15.607Z,10.72
2017-05-02T17:16:44.452Z,9.66
2017-05-02T17:19:12.814Z,9.24
2017-05-02T17:21:41.578Z,11.44
2017-05-02T17:24:10.002Z,11.38
2017-05-02T17:26:39.270Z,12.08
2017-05-02T17:29:07.641Z,12.04
2017-05-02T17:31:36.002Z,10.20
2017-05-02T17:34:04.344Z,11.62
2017-05-02T17:36:32.824Z,13.72
2017-05-02T17:39:01.234Z,12.14
2017-05-02T17:41:33.891Z,10.82
2017-05-02T17:44:02.212Z,9.84
2017-05-02T17:46:30.549Z,11.84
2017-05-02T17:48:58.414Z,8.88
2017-05-02T17:51:26.816Z,7.92
2017-05-02T17:53:55.186Z,7.00
2017-05-02T17:56:24.145Z,7.84
2017-05-02T17:58:52.486Z,7.88
2017-05-02T18:01:20.801Z,9.90
2017-05-02T18:03:49.497Z,9.74
2017-05-02T18:06:17.902Z,9.60
2017-05-02T18:08:46.406Z,9.96
2017-05-02T18:11:14.762Z,11.06
2017-05-02T18:13:43.126Z,12.92
2017-05-02T18:16:11.525Z,9.50
2017-05-02T18:18:39.879Z,9.46
2017-05-02T18:21:08.256Z,11.20
2017-05-02T18:23:36.601Z,9.88
2017-05-02T18:26:05.029Z,9.90
2017-05-02T18:28:33.367Z,10.82
2017-05-02T18:31:01.702Z,9.86
2017-05-02T18:33:30.340Z,11.58
2017-05-02T18:35:58.705Z,10.10
2017-05-02T18:38:27.050Z,6.88
2017-05-02T18:40:55.820Z,8.60
2017-05-02T18:43:24.210Z,10.64
2017-05-02T18:45:53.718Z,6.90
2017-05-02T18:48:22.832Z,7.94
2017-05-02T18:50:51.211Z,6.92
2017-05-02T18:53:19.563Z,7.46
2017-05-02T18:55:47.946Z,6.28
2017-05-02T18:58:16.302Z,7.08
2017-05-02T19:00:44.699Z,8.42
2017-05-02T19:03:13.123Z,6.86
2017-05-02T19:05:41.476Z,7.22
2017-05-02T19:08:09.990Z,7.22
2017-05-02T19:10:38.409Z,9.56
2017-05-02T19:13:06.774Z,8.80
2017-05-02T19:15:36.285Z,6.72
2017-05-02T19:18:04.639Z,6.88
2017-05-02T19:20:32.988Z,7.32
2017-05-02T19:23:01.438Z,8.00
2017-05-02T19:25:29.836Z,8.44
2017-05-02T19:27:58.401Z,8.64
2017-05-02T19:30:26.822Z,9.80
2017-05-02T19:32:55.368Z,11.08
2017-05-02T19:35:23.761Z,9.68
2017-05-02T19:37:52.126Z,10.66
2017-05-02T19:40:20.516Z,11.08
2017-05-02T19:42:49.003Z,11.08
2017-05-02T19:45:17.497Z,10.92
2017-05-02T19:47:45.864Z,10.72
2017-05-02T19:50:14.300Z,10.80
2017-05-02T19:52:42.727Z,10.70
2017-05-02T19:55:11.141Z,11.42
2017-05-02T19:57:39.630Z,11.28
2017-05-02T20:00:08.008Z,13.04
2017-05-02T20:02:36.463Z,10.38
2017-05-02T20:05:04.900Z,11.92
2017-05-02T20:07:33.265Z,12.90
2017-05-02T20:10:01.643Z,10.46
2017-05-02T20:12:30.031Z,11.38
2017-05-02T20:14:58.510Z,12.00
2017-05-02T20:17:26.856Z,10.84
2017-05-02T20:19:55.672Z,13.64
2017-05-02T20:22:24.021Z,11.26
2017-05-02T20:24:52.430Z,10.08
2017-05-02T20:27:20.830Z,13.00
2017-05-02T20:29:49.175Z,13.02
2017-05-02T20:32:17.570Z,13.68
2017-05-02T20:34:45.956Z,12.44
2017-05-02T20:37:14.414Z,12.48
2017-05-02T20:39:42.901Z,12.24
2017-05-02T20:42:11.307Z,10.30
2017-05-02T20:44:39.657Z,11.76
2017-05-02T20:47:08.057Z,12.92
2017-05-02T20:49:36.550Z,11.30
2017-05-02T20:52:04.982Z,12.86
2017-05-02T20:54:33.379Z,10.98
2017-05-02T20:57:01.743Z,15.86
2017-05-02T20:59:30.152Z,13.22
2017-05-02T21:01:58.529Z,11.30
2017-05-02T21:04:26.909Z,15.34
2017-05-02T21:06:55.612Z,16.08
2017-05-02T21:09:24.000Z,17.34
2017-05-02T21:11:52.338Z,17.88
2017-05-02T21:14:20.738Z,18.84
2017-05-02T21:16:49.126Z,15.20
2017-05-02T21:19:17.880Z,14.00
2017-05-02T21:21:46.255Z,14.18
2017-05-02T21:24:14.682Z,16.08
2017-05-02T21:26:43.426Z,13.98
2017-05-02T21:29:11.871Z,15.96
2017-05-02T21:31:40.250Z,14.84
2017-05-02T21:34:08.697Z,15.60
2017-05-02T21:36:37.062Z,13.66
2017-05-02T21:39:05.540Z,11.92
2017-05-02T21:41:33.893Z,17.50
2017-05-02T21:44:02.656Z,13.88
2017-05-02T21:46:31.021Z,18.94
2017-05-02T21:49:00.124Z,11.04
2017-05-02T21:51:28.530Z,14.90
2017-05-02T21:53:56.890Z,12.56
2017-05-02T21:56:25.316Z,11.46
2017-05-02T21:58:53.689Z,15.48
2017-05-02T22:01:22.173Z,18.26
2017-05-02T22:03:50.624Z,13.92
2017-05-02T22:06:19.120Z,13.64
2017-05-02T22:08:47.888Z,13.72
2017-05-02T22:11:16.243Z,14.16
2017-05-02T22:13:44.637Z,16.84
2017-05-02T22:16:13.040Z,16.14
2017-05-02T22:18:41.426Z,16.14
2017-05-02T22:21:10.545Z,18.98
2017-05-02T22:23:38.917Z,17.78
2017-05-02T22:26:07.322Z,17.78
2017-05-02T22:28:35.700Z,17.26
2017-05-02T22:31:04.782Z,13.88
2017-05-02T22:33:33.899Z,15.22
2017-05-02T22:36:02.250Z,19.36
2017-05-02T22:38:31.354Z,17.40
2017-05-02T22:40:59.710Z,16.86
2017-05-02T22:43:28.069Z,16.90
2017-05-02T22:45:56.552Z,17.34
2017-05-02T22:48:24.952Z,14.04
2017-05-02T22:50:53.374Z,14.46
2017-05-02T22:53:21.751Z,17.54
2017-05-02T22:55:50.325Z,14.62
2017-05-02T22:58:18.688Z,16.60
2017-05-02T23:00:47.034Z,16.00
2017-05-02T23:03:15.429Z,16.58
2017-05-02T23:05:44.648Z,15.10
2017-05-02T23:08:13.266Z,16.96
2017-05-02T23:10:41.608Z,14.82
2017-05-02T23:13:10.133Z,13.70
2017-05-02T23:15:38.595Z,16.02
2017-05-02T23:18:06.931Z,17.10
2017-05-02T23:20:36.105Z,14.40
2017-05-02T23:23:04.475Z,16.68
2017-05-02T23:25:32.817Z,17.96
2017-05-02T23:28:01.180Z,17.26
2017-05-02T23:30:29.579Z,13.06
2017-05-02T23:32:57.967Z,14.44
2017-05-02T23:35:26.440Z,13.98
2017-05-02T23:37:54.774Z,19.36
2017-05-02T23:40:23.170Z,16.48
2017-05-02T23:42:51.521Z,16.14
2017-05-02T23:45:19.870Z,17.52
2017-05-02T23:47:48.281Z,18.22
2017-05-02T23:50:16.741Z,18.74
2017-05-02T23:52:45.826Z,17.26
2017-05-02T23:55:14.343Z,16.40
2017-05-02T23:57:42.694Z,20.94
